sensor_id;sensor_type;location;lat;lon;timestamp;P1;durP1;ratioP1;P2;durP2;ratioP2
20703;SDS011;62934;49.420;8.652;2022-12-18T00:01:24;76.93;;;30.77;;
20703;SDS011;62934;49.420;8.652;2022-12-18T00:03:58;78.80;;;31.27;;
20703;SDS011;62934;49.420;8.652;2022-12-18T00:06:25;74.60;;;30.37;;
20703;SDS011;62934;49.420;8.652;2022-12-18T00:08:53;80.43;;;29.17;;
20703;SDS011;62934;49.420;8.652;2022-12-18T00:11:20;78.77;;;30.40;;
20703;SDS011;62934;49.420;8.652;2022-12-18T00:13:47;68.03;;;29.50;;
20703;SDS011;62934;49.420;8.652;2022-12-18T00:16:15;72.03;;;28.27;;
20703;SDS011;62934;49.420;8.652;2022-12-18T00:18:46;73.83;;;29.80;;
20703;SDS011;62934;49.420;8.652;2022-12-18T00:21:13;76.97;;;28.37;;
20703;SDS011;62934;49.420;8.652;2022-12-18T00:23:39;85.70;;;30.70;;
20703;SDS011;62934;49.420;8.652;2022-12-18T00:26:07;72.47;;;28.80;;
20703;SDS011;62934;49.420;8.652;2022-12-18T00:28:39;60.27;;;26.83;;
20703;SDS011;62934;49.420;8.652;2022-12-18T00:33:33;63.10;;;28.07;;
20703;SDS011;62934;49.420;8.652;2022-12-18T00:38:28;74.27;;;30.53;;
20703;SDS011;62934;49.420;8.652;2022-12-18T00:40:53;75.27;;;29.57;;
20703;SDS011;62934;49.420;8.652;2022-12-18T00:43:19;66.07;;;28.43;;
20703;SDS011;62934;49.420;8.652;2022-12-18T00:45:45;69.60;;;28.63;;
20703;SDS011;62934;49.420;8.652;2022-12-18T00:48:10;67.87;;;27.87;;
20703;SDS011;62934;49.420;8.652;2022-12-18T00:50:36;73.43;;;29.53;;
20703;SDS011;62934;49.420;8.652;2022-12-18T00:53:02;67.80;;;29.00;;
20703;SDS011;62934;49.420;8.652;2022-12-18T00:55:27;73.20;;;28.47;;
20703;SDS011;62934;49.420;8.652;2022-12-18T00:57:53;75.80;;;29.40;;
20703;SDS011;62934;49.420;8.652;2022-12-18T01:00:19;73.60;;;29.10;;
20703;SDS011;62934;49.420;8.652;2022-12-18T01:02:44;65.20;;;27.87;;
20703;SDS011;62934;49.420;8.652;2022-12-18T01:05:10;73.73;;;28.70;;
20703;SDS011;62934;49.420;8.652;2022-12-18T01:07:37;62.50;;;26.53;;
20703;SDS011;62934;49.420;8.652;2022-12-18T01:10:04;64.50;;;26.43;;
20703;SDS011;62934;49.420;8.652;2022-12-18T01:12:31;58.37;;;25.70;;
20703;SDS011;62934;49.420;8.652;2022-12-18T01:14:57;61.03;;;24.53;;
20703;SDS011;62934;49.420;8.652;2022-12-18T01:17:23;57.53;;;24.70;;
20703;SDS011;62934;49.420;8.652;2022-12-18T01:19:48;60.97;;;25.60;;
20703;SDS011;62934;49.420;8.652;2022-12-18T01:22:14;60.23;;;25.33;;
20703;SDS011;62934;49.420;8.652;2022-12-18T01:24:40;61.07;;;25.47;;
20703;SDS011;62934;49.420;8.652;2022-12-18T01:27:06;62.67;;;25.60;;
20703;SDS011;62934;49.420;8.652;2022-12-18T01:29:31;57.80;;;24.47;;
20703;SDS011;62934;49.420;8.652;2022-12-18T01:31:57;55.30;;;24.20;;
20703;SDS011;62934;49.420;8.652;2022-12-18T01:34:23;59.13;;;24.80;;
20703;SDS011;62934;49.420;8.652;2022-12-18T01:36:49;55.43;;;24.07;;
20703;SDS011;62934;49.420;8.652;2022-12-18T01:39:17;56.13;;;23.70;;
20703;SDS011;62934;49.420;8.652;2022-12-18T01:41:43;56.23;;;24.90;;
20703;SDS011;62934;49.420;8.652;2022-12-18T01:47:34;51.73;;;23.83;;
20703;SDS011;62934;49.420;8.652;2022-12-18T01:50:10;53.17;;;23.67;;
20703;SDS011;62934;49.420;8.652;2022-12-18T01:52:52;51.63;;;22.60;;
20703;SDS011;62934;49.420;8.652;2022-12-18T01:55:21;53.57;;;24.23;;
20703;SDS011;62934;49.420;8.652;2022-12-18T01:57:50;56.57;;;24.67;;
20703;SDS011;62934;49.420;8.652;2022-12-18T02:00:19;57.03;;;23.93;;
20703;SDS011;62934;49.420;8.652;2022-12-18T02:02:46;57.90;;;24.83;;
20703;SDS011;62934;49.420;8.652;2022-12-18T02:05:14;57.77;;;24.00;;
20703;SDS011;62934;49.420;8.652;2022-12-18T02:10:13;56.10;;;24.27;;
20703;SDS011;62934;49.420;8.652;2022-12-18T02:13:03;66.13;;;25.13;;
20703;SDS011;62934;49.420;8.652;2022-12-18T02:18:30;55.23;;;23.93;;
20703;SDS011;62934;49.420;8.652;2022-12-18T02:26:30;57.13;;;24.53;;
20703;SDS011;62934;49.420;8.652;2022-12-18T02:29:13;59.20;;;24.03;;
20703;SDS011;62934;49.420;8.652;2022-12-18T02:31:44;60.40;;;24.93;;
20703;SDS011;62934;49.420;8.652;2022-12-18T02:34:14;57.20;;;24.13;;
20703;SDS011;62934;49.420;8.652;2022-12-18T02:36:42;58.97;;;25.33;;
20703;SDS011;62934;49.420;8.652;2022-12-18T02:39:10;61.17;;;25.53;;
20703;SDS011;62934;49.420;8.652;2022-12-18T02:41:38;54.77;;;24.40;;
20703;SDS011;62934;49.420;8.652;2022-12-18T02:44:08;52.17;;;22.37;;
20703;SDS011;62934;49.420;8.652;2022-12-18T02:49:12;56.13;;;24.77;;
20703;SDS011;62934;49.420;8.652;2022-12-18T02:51:41;64.57;;;26.87;;
20703;SDS011;62934;49.420;8.652;2022-12-18T02:54:44;60.07;;;24.90;;
20703;SDS011;62934;49.420;8.652;2022-12-18T03:00:08;60.73;;;25.63;;
20703;SDS011;62934;49.420;8.652;2022-12-18T03:03:09;59.53;;;24.93;;
20703;SDS011;62934;49.420;8.652;2022-12-18T03:05:52;58.90;;;25.27;;
20703;SDS011;62934;49.420;8.652;2022-12-18T03:08:23;57.63;;;24.70;;
20703;SDS011;62934;49.420;8.652;2022-12-18T03:11:00;67.17;;;26.50;;
20703;SDS011;62934;49.420;8.652;2022-12-18T03:13:31;58.77;;;24.67;;
20703;SDS011;62934;49.420;8.652;2022-12-18T03:16:05;53.33;;;24.00;;
20703;SDS011;62934;49.420;8.652;2022-12-18T03:18:36;52.87;;;23.90;;
20703;SDS011;62934;49.420;8.652;2022-12-18T03:21:07;56.10;;;24.10;;
20703;SDS011;62934;49.420;8.652;2022-12-18T03:23:39;57.07;;;24.23;;
20703;SDS011;62934;49.420;8.652;2022-12-18T03:26:08;58.03;;;26.03;;
20703;SDS011;62934;49.420;8.652;2022-12-18T03:28:38;62.00;;;26.23;;
20703;SDS011;62934;49.420;8.652;2022-12-18T03:31:09;60.13;;;26.07;;
20703;SDS011;62934;49.420;8.652;2022-12-18T03:33:47;61.27;;;25.27;;
20703;SDS011;62934;49.420;8.652;2022-12-18T03:36:20;59.97;;;25.13;;
20703;SDS011;62934;49.420;8.652;2022-12-18T03:38:47;67.77;;;25.97;;
20703;SDS011;62934;49.420;8.652;2022-12-18T03:41:21;58.07;;;26.00;;
20703;SDS011;62934;49.420;8.652;2022-12-18T03:44:11;68.27;;;25.93;;
20703;SDS011;62934;49.420;8.652;2022-12-18T03:55:21;62.37;;;25.50;;
20703;SDS011;62934;49.420;8.652;2022-12-18T03:57:50;58.23;;;24.93;;
20703;SDS011;62934;49.420;8.652;2022-12-18T04:00:18;58.40;;;24.43;;
20703;SDS011;62934;49.420;8.652;2022-12-18T04:02:46;58.07;;;25.23;;
20703;SDS011;62934;49.420;8.652;2022-12-18T04:05:16;56.23;;;25.17;;
20703;SDS011;62934;49.420;8.652;2022-12-18T04:07:43;56.70;;;24.60;;
20703;SDS011;62934;49.420;8.652;2022-12-18T04:10:11;53.40;;;23.40;;
20703;SDS011;62934;49.420;8.652;2022-12-18T04:12:38;58.00;;;24.03;;
20703;SDS011;62934;49.420;8.652;2022-12-18T04:15:04;64.07;;;25.47;;
20703;SDS011;62934;49.420;8.652;2022-12-18T04:17:31;60.07;;;24.87;;
20703;SDS011;62934;49.420;8.652;2022-12-18T04:19:56;58.47;;;24.87;;
20703;SDS011;62934;49.420;8.652;2022-12-18T04:22:22;60.20;;;24.63;;
20703;SDS011;62934;49.420;8.652;2022-12-18T04:24:47;58.37;;;24.70;;
20703;SDS011;62934;49.420;8.652;2022-12-18T04:27:13;60.33;;;25.20;;
20703;SDS011;62934;49.420;8.652;2022-12-18T04:29:39;62.83;;;24.80;;
20703;SDS011;62934;49.420;8.652;2022-12-18T04:32:04;53.93;;;24.10;;
20703;SDS011;62934;49.420;8.652;2022-12-18T04:34:30;55.80;;;23.53;;
20703;SDS011;62934;49.420;8.652;2022-12-18T04:36:56;59.10;;;24.67;;
20703;SDS011;62934;49.420;8.652;2022-12-18T04:39:21;59.87;;;25.03;;
20703;SDS011;62934;49.420;8.652;2022-12-18T04:41:47;55.63;;;23.83;;
20703;SDS011;62934;49.420;8.652;2022-12-18T04:44:13;56.47;;;24.63;;
20703;SDS011;62934;49.420;8.652;2022-12-18T04:46:39;53.70;;;23.20;;
20703;SDS011;62934;49.420;8.652;2022-12-18T04:49:04;61.70;;;24.33;;
20703;SDS011;62934;49.420;8.652;2022-12-18T04:51:30;52.77;;;24.17;;
20703;SDS011;62934;49.420;8.652;2022-12-18T04:53:55;61.13;;;24.17;;
20703;SDS011;62934;49.420;8.652;2022-12-18T04:56:21;55.10;;;24.10;;
20703;SDS011;62934;49.420;8.652;2022-12-18T04:58:47;59.10;;;24.43;;
20703;SDS011;62934;49.420;8.652;2022-12-18T05:01:14;56.47;;;25.17;;
20703;SDS011;62934;49.420;8.652;2022-12-18T05:03:41;58.43;;;24.37;;
20703;SDS011;62934;49.420;8.652;2022-12-18T05:06:07;54.97;;;23.83;;
20703;SDS011;62934;49.420;8.652;2022-12-18T05:08:33;62.87;;;26.27;;
20703;SDS011;62934;49.420;8.652;2022-12-18T05:11:06;59.23;;;24.73;;
20703;SDS011;62934;49.420;8.652;2022-12-18T05:13:33;62.17;;;24.53;;
20703;SDS011;62934;49.420;8.652;2022-12-18T05:16:00;57.93;;;24.70;;
20703;SDS011;62934;49.420;8.652;2022-12-18T05:18:26;64.80;;;25.50;;
20703;SDS011;62934;49.420;8.652;2022-12-18T05:20:52;60.97;;;25.10;;
20703;SDS011;62934;49.420;8.652;2022-12-18T05:23:19;60.57;;;24.83;;
20703;SDS011;62934;49.420;8.652;2022-12-18T05:25:50;58.20;;;24.07;;
20703;SDS011;62934;49.420;8.652;2022-12-18T05:28:20;59.17;;;24.73;;
20703;SDS011;62934;49.420;8.652;2022-12-18T05:30:49;61.17;;;24.70;;
20703;SDS011;62934;49.420;8.652;2022-12-18T05:33:16;60.80;;;25.13;;
20703;SDS011;62934;49.420;8.652;2022-12-18T05:35:43;60.30;;;24.27;;
20703;SDS011;62934;49.420;8.652;2022-12-18T05:38:09;55.30;;;23.63;;
20703;SDS011;62934;49.420;8.652;2022-12-18T05:40:35;53.80;;;24.10;;
20703;SDS011;62934;49.420;8.652;2022-12-18T05:43:04;58.90;;;25.13;;
20703;SDS011;62934;49.420;8.652;2022-12-18T05:45:30;57.47;;;25.67;;
20703;SDS011;62934;49.420;8.652;2022-12-18T05:47:55;64.67;;;25.97;;
20703;SDS011;62934;49.420;8.652;2022-12-18T05:50:21;57.93;;;24.53;;
20703;SDS011;62934;49.420;8.652;2022-12-18T05:52:47;61.50;;;26.17;;
20703;SDS011;62934;49.420;8.652;2022-12-18T05:55:12;35.67;;;14.40;;
20703;SDS011;62934;49.420;8.652;2022-12-18T05:57:38;52.73;;;23.60;;
20703;SDS011;62934;49.420;8.652;2022-12-18T06:00:04;59.27;;;24.97;;
20703;SDS011;62934;49.420;8.652;2022-12-18T06:02:30;57.77;;;25.30;;
20703;SDS011;62934;49.420;8.652;2022-12-18T06:04:55;57.37;;;26.17;;
20703;SDS011;62934;49.420;8.652;2022-12-18T06:07:21;62.90;;;25.40;;
20703;SDS011;62934;49.420;8.652;2022-12-18T06:09:46;60.87;;;25.20;;
20703;SDS011;62934;49.420;8.652;2022-12-18T06:12:12;57.93;;;24.30;;
20703;SDS011;62934;49.420;8.652;2022-12-18T06:14:38;52.40;;;24.00;;
20703;SDS011;62934;49.420;8.652;2022-12-18T06:17:03;68.70;;;27.07;;
20703;SDS011;62934;49.420;8.652;2022-12-18T06:19:29;60.73;;;25.47;;
20703;SDS011;62934;49.420;8.652;2022-12-18T06:21:55;59.97;;;25.80;;
20703;SDS011;62934;49.420;8.652;2022-12-18T06:24:22;60.37;;;25.50;;
20703;SDS011;62934;49.420;8.652;2022-12-18T06:26:48;64.23;;;26.27;;
20703;SDS011;62934;49.420;8.652;2022-12-18T06:29:13;61.60;;;26.13;;
20703;SDS011;62934;49.420;8.652;2022-12-18T06:31:39;61.67;;;25.93;;
20703;SDS011;62934;49.420;8.652;2022-12-18T06:34:05;60.90;;;25.60;;
20703;SDS011;62934;49.420;8.652;2022-12-18T06:36:30;60.73;;;25.00;;
20703;SDS011;62934;49.420;8.652;2022-12-18T06:38:56;61.43;;;25.10;;
20703;SDS011;62934;49.420;8.652;2022-12-18T06:41:22;65.00;;;25.73;;
20703;SDS011;62934;49.420;8.652;2022-12-18T06:43:48;63.90;;;26.20;;
20703;SDS011;62934;49.420;8.652;2022-12-18T06:46:14;61.33;;;25.53;;
20703;SDS011;62934;49.420;8.652;2022-12-18T06:48:40;62.20;;;25.73;;
20703;SDS011;62934;49.420;8.652;2022-12-18T06:51:06;66.53;;;27.17;;
20703;SDS011;62934;49.420;8.652;2022-12-18T06:53:32;66.03;;;26.80;;
20703;SDS011;62934;49.420;8.652;2022-12-18T06:56:05;65.43;;;27.97;;
20703;SDS011;62934;49.420;8.652;2022-12-18T06:58:32;63.43;;;25.93;;
20703;SDS011;62934;49.420;8.652;2022-12-18T07:01:01;65.43;;;27.07;;
20703;SDS011;62934;49.420;8.652;2022-12-18T07:03:28;62.30;;;25.27;;
20703;SDS011;62934;49.420;8.652;2022-12-18T07:05:53;61.00;;;25.47;;
20703;SDS011;62934;49.420;8.652;2022-12-18T07:08:19;64.40;;;25.93;;
20703;SDS011;62934;49.420;8.652;2022-12-18T07:10:46;60.00;;;25.37;;
20703;SDS011;62934;49.420;8.652;2022-12-18T07:13:13;57.13;;;24.53;;
20703;SDS011;62934;49.420;8.652;2022-12-18T07:15:40;57.60;;;25.30;;
20703;SDS011;62934;49.420;8.652;2022-12-18T07:18:05;61.97;;;25.53;;
20703;SDS011;62934;49.420;8.652;2022-12-18T07:20:31;58.03;;;25.13;;
20703;SDS011;62934;49.420;8.652;2022-12-18T07:22:57;59.63;;;24.87;;
20703;SDS011;62934;49.420;8.652;2022-12-18T07:25:22;59.17;;;25.27;;
20703;SDS011;62934;49.420;8.652;2022-12-18T07:27:48;56.27;;;24.30;;
20703;SDS011;62934;49.420;8.652;2022-12-18T07:30:14;60.53;;;23.80;;
20703;SDS011;62934;49.420;8.652;2022-12-18T07:32:39;55.50;;;23.37;;
20703;SDS011;62934;49.420;8.652;2022-12-18T07:35:05;57.23;;;24.13;;
20703;SDS011;62934;49.420;8.652;2022-12-18T07:37:32;55.87;;;23.13;;
20703;SDS011;62934;49.420;8.652;2022-12-18T07:39:57;56.63;;;24.33;;
20703;SDS011;62934;49.420;8.652;2022-12-18T07:42:23;62.50;;;24.13;;
20703;SDS011;62934;49.420;8.652;2022-12-18T07:44:58;61.83;;;24.47;;
20703;SDS011;62934;49.420;8.652;2022-12-18T07:47:24;59.30;;;24.03;;
20703;SDS011;62934;49.420;8.652;2022-12-18T07:49:50;60.33;;;24.67;;
20703;SDS011;62934;49.420;8.652;2022-12-18T07:52:16;60.27;;;23.60;;
20703;SDS011;62934;49.420;8.652;2022-12-18T07:54:41;62.23;;;24.90;;
20703;SDS011;62934;49.420;8.652;2022-12-18T07:57:07;62.60;;;24.93;;
20703;SDS011;62934;49.420;8.652;2022-12-18T07:59:34;55.67;;;25.00;;
20703;SDS011;62934;49.420;8.652;2022-12-18T08:01:59;62.20;;;28.52;;
20703;SDS011;62934;49.420;8.652;2022-12-18T08:04:25;56.27;;;24.20;;
20703;SDS011;62934;49.420;8.652;2022-12-18T08:06:51;57.77;;;23.80;;
20703;SDS011;62934;49.420;8.652;2022-12-18T08:09:17;56.67;;;31.37;;
20703;SDS011;62934;49.420;8.652;2022-12-18T08:11:42;57.33;;;26.43;;
20703;SDS011;62934;49.420;8.652;2022-12-18T08:14:08;55.83;;;24.27;;
20703;SDS011;62934;49.420;8.652;2022-12-18T08:16:34;64.30;;;26.17;;
20703;SDS011;62934;49.420;8.652;2022-12-18T08:19:00;64.77;;;26.80;;
20703;SDS011;62934;49.420;8.652;2022-12-18T08:21:27;64.17;;;27.63;;
20703;SDS011;62934;49.420;8.652;2022-12-18T08:23:56;57.67;;;25.77;;
20703;SDS011;62934;49.420;8.652;2022-12-18T08:26:24;53.27;;;24.43;;
20703;SDS011;62934;49.420;8.652;2022-12-18T08:28:51;61.13;;;26.03;;
20703;SDS011;62934;49.420;8.652;2022-12-18T08:31:18;61.67;;;26.77;;
20703;SDS011;62934;49.420;8.652;2022-12-18T08:33:44;60.53;;;26.13;;
20703;SDS011;62934;49.420;8.652;2022-12-18T08:36:12;58.20;;;25.53;;
20703;SDS011;62934;49.420;8.652;2022-12-18T08:38:38;59.27;;;26.13;;
20703;SDS011;62934;49.420;8.652;2022-12-18T08:41:07;59.13;;;26.07;;
20703;SDS011;62934;49.420;8.652;2022-12-18T08:43:35;56.97;;;25.93;;
20703;SDS011;62934;49.420;8.652;2022-12-18T08:46:20;63.17;;;26.73;;
20703;SDS011;62934;49.420;8.652;2022-12-18T08:48:47;57.43;;;25.63;;
20703;SDS011;62934;49.420;8.652;2022-12-18T08:51:18;58.27;;;26.27;;
20703;SDS011;62934;49.420;8.652;2022-12-18T08:53:44;80.43;;;24.67;;
20703;SDS011;62934;49.420;8.652;2022-12-18T08:56:11;68.80;;;21.77;;
20703;SDS011;62934;49.420;8.652;2022-12-18T08:58:37;25.53;;;15.83;;
20703;SDS011;62934;49.420;8.652;2022-12-18T09:01:04;25.07;;;15.30;;
20703;SDS011;62934;49.420;8.652;2022-12-18T09:03:32;45.27;;;23.80;;
20703;SDS011;62934;49.420;8.652;2022-12-18T09:05:58;51.53;;;26.57;;
20703;SDS011;62934;49.420;8.652;2022-12-18T09:08:24;55.20;;;26.60;;
20703;SDS011;62934;49.420;8.652;2022-12-18T09:10:50;54.50;;;24.30;;
20703;SDS011;62934;49.420;8.652;2022-12-18T09:13:17;58.63;;;27.33;;
20703;SDS011;62934;49.420;8.652;2022-12-18T09:15:43;58.03;;;27.97;;
20703;SDS011;62934;49.420;8.652;2022-12-18T09:18:11;56.60;;;26.10;;
20703;SDS011;62934;49.420;8.652;2022-12-18T09:20:37;61.50;;;28.00;;
20703;SDS011;62934;49.420;8.652;2022-12-18T09:23:03;58.53;;;26.30;;
20703;SDS011;62934;49.420;8.652;2022-12-18T09:25:30;62.00;;;26.07;;
20703;SDS011;62934;49.420;8.652;2022-12-18T09:27:58;64.37;;;28.43;;
20703;SDS011;62934;49.420;8.652;2022-12-18T09:30:25;62.80;;;27.30;;
20703;SDS011;62934;49.420;8.652;2022-12-18T09:32:51;66.20;;;27.73;;
20703;SDS011;62934;49.420;8.652;2022-12-18T09:35:19;57.87;;;26.33;;
20703;SDS011;62934;49.420;8.652;2022-12-18T09:37:45;62.47;;;26.70;;
20703;SDS011;62934;49.420;8.652;2022-12-18T09:40:14;61.77;;;27.43;;
20703;SDS011;62934;49.420;8.652;2022-12-18T09:42:43;58.50;;;25.10;;
20703;SDS011;62934;49.420;8.652;2022-12-18T09:45:13;56.47;;;25.20;;
20703;SDS011;62934;49.420;8.652;2022-12-18T09:47:41;60.97;;;26.53;;
20703;SDS011;62934;49.420;8.652;2022-12-18T09:50:27;50.73;;;24.10;;
20703;SDS011;62934;49.420;8.652;2022-12-18T09:52:57;57.17;;;26.67;;
20703;SDS011;62934;49.420;8.652;2022-12-18T09:55:33;59.50;;;27.33;;
20703;SDS011;62934;49.420;8.652;2022-12-18T10:00:59;59.43;;;28.10;;
20703;SDS011;62934;49.420;8.652;2022-12-18T10:03:25;68.63;;;28.70;;
20703;SDS011;62934;49.420;8.652;2022-12-18T10:10:57;66.47;;;30.00;;
20703;SDS011;62934;49.420;8.652;2022-12-18T10:13:47;66.93;;;29.70;;
20703;SDS011;62934;49.420;8.652;2022-12-18T10:24:55;67.73;;;29.33;;
20703;SDS011;62934;49.420;8.652;2022-12-18T10:27:24;69.13;;;30.77;;
20703;SDS011;62934;49.420;8.652;2022-12-18T10:29:51;67.10;;;30.60;;
20703;SDS011;62934;49.420;8.652;2022-12-18T10:32:22;68.20;;;31.30;;
20703;SDS011;62934;49.420;8.652;2022-12-18T10:34:50;60.83;;;28.10;;
20703;SDS011;62934;49.420;8.652;2022-12-18T10:37:18;63.73;;;29.10;;
20703;SDS011;62934;49.420;8.652;2022-12-18T10:39:46;68.33;;;29.83;;
20703;SDS011;62934;49.420;8.652;2022-12-18T10:42:32;63.13;;;28.23;;
20703;SDS011;62934;49.420;8.652;2022-12-18T10:45:05;67.20;;;29.97;;
20703;SDS011;62934;49.420;8.652;2022-12-18T10:47:41;65.00;;;28.87;;
20703;SDS011;62934;49.420;8.652;2022-12-18T10:50:17;65.00;;;28.77;;
20703;SDS011;62934;49.420;8.652;2022-12-18T10:52:52;67.17;;;29.43;;
20703;SDS011;62934;49.420;8.652;2022-12-18T10:55:30;70.67;;;29.57;;
20703;SDS011;62934;49.420;8.652;2022-12-18T10:58:13;65.83;;;30.87;;
20703;SDS011;62934;49.420;8.652;2022-12-18T11:01:03;66.93;;;30.60;;
20703;SDS011;62934;49.420;8.652;2022-12-18T11:03:32;66.97;;;30.70;;
20703;SDS011;62934;49.420;8.652;2022-12-18T11:06:10;67.17;;;30.60;;
20703;SDS011;62934;49.420;8.652;2022-12-18T11:08:41;67.90;;;30.90;;
20703;SDS011;62934;49.420;8.652;2022-12-18T11:11:15;72.23;;;31.13;;
20703;SDS011;62934;49.420;8.652;2022-12-18T11:13:51;70.33;;;32.07;;
20703;SDS011;62934;49.420;8.652;2022-12-18T11:16:20;72.60;;;31.00;;
20703;SDS011;62934;49.420;8.652;2022-12-18T11:18:46;64.77;;;28.47;;
20703;SDS011;62934;49.420;8.652;2022-12-18T11:21:12;66.73;;;31.50;;
20703;SDS011;62934;49.420;8.652;2022-12-18T11:23:46;70.83;;;30.70;;
20703;SDS011;62934;49.420;8.652;2022-12-18T11:26:15;65.60;;;29.43;;
20703;SDS011;62934;49.420;8.652;2022-12-18T11:28:46;44.33;;;18.30;;
20703;SDS011;62934;49.420;8.652;2022-12-18T11:34:00;64.90;;;30.30;;
20703;SDS011;62934;49.420;8.652;2022-12-18T11:36:46;62.03;;;29.80;;
20703;SDS011;62934;49.420;8.652;2022-12-18T11:42:12;58.50;;;28.33;;
20703;SDS011;62934;49.420;8.652;2022-12-18T11:44:50;63.50;;;30.63;;
20703;SDS011;62934;49.420;8.652;2022-12-18T11:50:20;69.57;;;31.37;;
20703;SDS011;62934;49.420;8.652;2022-12-18T11:53:11;70.07;;;33.10;;
20703;SDS011;62934;49.420;8.652;2022-12-18T12:01:17;67.97;;;32.30;;
20703;SDS011;62934;49.420;8.652;2022-12-18T12:17:57;65.07;;;31.53;;
20703;SDS011;62934;49.420;8.652;2022-12-18T12:23:52;159.77;;;97.67;;
20703;SDS011;62934;49.420;8.652;2022-12-18T12:34:34;76.20;;;35.13;;
20703;SDS011;62934;49.420;8.652;2022-12-18T12:39:52;85.27;;;36.53;;
20703;SDS011;62934;49.420;8.652;2022-12-18T12:42:23;70.67;;;33.07;;
20703;SDS011;62934;49.420;8.652;2022-12-18T12:45:36;67.43;;;31.53;;
20703;SDS011;62934;49.420;8.652;2022-12-18T12:50:57;64.63;;;29.33;;
20703;SDS011;62934;49.420;8.652;2022-12-18T12:53:27;64.73;;;29.60;;
20703;SDS011;62934;49.420;8.652;2022-12-18T12:55:58;56.27;;;26.97;;
20703;SDS011;62934;49.420;8.652;2022-12-18T13:01:25;66.20;;;31.67;;
20703;SDS011;62934;49.420;8.652;2022-12-18T13:06:41;73.90;;;36.10;;
20703;SDS011;62934;49.420;8.652;2022-12-18T13:09:03;59.43;;;26.73;;
20703;SDS011;62934;49.420;8.652;2022-12-18T13:14:28;55.03;;;25.13;;
20703;SDS011;62934;49.420;8.652;2022-12-18T13:19:49;49.57;;;22.83;;
20703;SDS011;62934;49.420;8.652;2022-12-18T13:22:24;45.37;;;22.00;;
20703;SDS011;62934;49.420;8.652;2022-12-18T13:25:00;48.23;;;22.80;;
20703;SDS011;62934;49.420;8.652;2022-12-18T13:38:22;59.07;;;27.10;;
20703;SDS011;62934;49.420;8.652;2022-12-18T13:46:17;50.47;;;22.10;;
20703;SDS011;62934;49.420;8.652;2022-12-18T13:48:32;45.30;;;21.80;;
20703;SDS011;62934;49.420;8.652;2022-12-18T13:53:48;48.47;;;22.67;;
20703;SDS011;62934;49.420;8.652;2022-12-18T13:56:31;48.90;;;22.37;;
20703;SDS011;62934;49.420;8.652;2022-12-18T14:01:58;48.43;;;22.43;;
20703;SDS011;62934;49.420;8.652;2022-12-18T14:04:40;49.97;;;23.03;;
20703;SDS011;62934;49.420;8.652;2022-12-18T14:07:11;48.27;;;21.80;;
20703;SDS011;62934;49.420;8.652;2022-12-18T14:09:42;53.93;;;23.17;;
20703;SDS011;62934;49.420;8.652;2022-12-18T14:12:27;47.73;;;21.73;;
20703;SDS011;62934;49.420;8.652;2022-12-18T14:15:19;50.13;;;23.80;;
20703;SDS011;62934;49.420;8.652;2022-12-18T14:17:49;63.20;;;28.60;;
20703;SDS011;62934;49.420;8.652;2022-12-18T14:20:17;64.10;;;31.30;;
20703;SDS011;62934;49.420;8.652;2022-12-18T14:22:46;72.37;;;35.77;;
20703;SDS011;62934;49.420;8.652;2022-12-18T14:25:18;74.83;;;33.77;;
20703;SDS011;62934;49.420;8.652;2022-12-18T14:27:47;69.40;;;32.13;;
20703;SDS011;62934;49.420;8.652;2022-12-18T14:35:30;72.13;;;33.93;;
20703;SDS011;62934;49.420;8.652;2022-12-18T14:40:41;95.70;;;30.70;;
20703;SDS011;62934;49.420;8.652;2022-12-18T14:43:10;40.93;;;23.97;;
20703;SDS011;62934;49.420;8.652;2022-12-18T14:45:37;49.30;;;31.13;;
20703;SDS011;62934;49.420;8.652;2022-12-18T14:48:51;39.03;;;26.90;;
20703;SDS011;62934;49.420;8.652;2022-12-18T14:51:01;33.60;;;22.43;;
20703;SDS011;62934;49.420;8.652;2022-12-18T14:53:48;43.17;;;26.13;;
20703;SDS011;62934;49.420;8.652;2022-12-18T14:56:20;60.57;;;33.13;;
20703;SDS011;62934;49.420;8.652;2022-12-18T14:58:51;66.23;;;34.63;;
20703;SDS011;62934;49.420;8.652;2022-12-18T15:01:30;67.17;;;33.87;;
20703;SDS011;62934;49.420;8.652;2022-12-18T15:04:05;65.20;;;33.50;;
20703;SDS011;62934;49.420;8.652;2022-12-18T15:06:47;68.67;;;33.53;;
20703;SDS011;62934;49.420;8.652;2022-12-18T15:09:23;69.00;;;34.27;;
20703;SDS011;62934;49.420;8.652;2022-12-18T15:11:54;67.40;;;32.50;;
20703;SDS011;62934;49.420;8.652;2022-12-18T15:14:33;69.27;;;33.23;;
20703;SDS011;62934;49.420;8.652;2022-12-18T15:17:18;66.97;;;32.77;;
20703;SDS011;62934;49.420;8.652;2022-12-18T15:19:45;70.60;;;34.33;;
20703;SDS011;62934;49.420;8.652;2022-12-18T15:22:16;68.87;;;33.47;;
20703;SDS011;62934;49.420;8.652;2022-12-18T15:24:50;65.13;;;31.43;;
20703;SDS011;62934;49.420;8.652;2022-12-18T15:32:31;69.70;;;34.50;;
20703;SDS011;62934;49.420;8.652;2022-12-18T15:35:08;69.33;;;33.73;;
20703;SDS011;62934;49.420;8.652;2022-12-18T15:37:39;70.87;;;31.33;;
20703;SDS011;62934;49.420;8.652;2022-12-18T15:40:08;39.97;;;19.93;;
20703;SDS011;62934;49.420;8.652;2022-12-18T15:42:41;31.57;;;20.57;;
20703;SDS011;62934;49.420;8.652;2022-12-18T15:45:26;36.80;;;21.07;;
20703;SDS011;62934;49.420;8.652;2022-12-18T15:47:52;68.73;;;34.70;;
20703;SDS011;62934;49.420;8.652;2022-12-18T15:50:18;68.40;;;33.93;;
20703;SDS011;62934;49.420;8.652;2022-12-18T15:52:45;69.63;;;34.77;;
20703;SDS011;62934;49.420;8.652;2022-12-18T15:55:22;72.77;;;36.07;;
20703;SDS011;62934;49.420;8.652;2022-12-18T15:58:07;70.40;;;35.57;;
20703;SDS011;62934;49.420;8.652;2022-12-18T16:00:34;68.80;;;35.03;;
20703;SDS011;62934;49.420;8.652;2022-12-18T16:03:03;67.63;;;33.27;;
20703;SDS011;62934;49.420;8.652;2022-12-18T16:05:29;60.87;;;30.63;;
20703;SDS011;62934;49.420;8.652;2022-12-18T16:07:55;69.50;;;38.83;;
20703;SDS011;62934;49.420;8.652;2022-12-18T16:10:21;68.40;;;35.03;;
20703;SDS011;62934;49.420;8.652;2022-12-18T16:12:47;70.80;;;35.93;;
20703;SDS011;62934;49.420;8.652;2022-12-18T16:15:13;76.23;;;35.80;;
20703;SDS011;62934;49.420;8.652;2022-12-18T16:17:41;75.70;;;35.70;;
20703;SDS011;62934;49.420;8.652;2022-12-18T16:20:17;68.20;;;34.90;;
20703;SDS011;62934;49.420;8.652;2022-12-18T16:22:45;75.90;;;35.83;;
20703;SDS011;62934;49.420;8.652;2022-12-18T16:25:19;77.60;;;36.77;;
20703;SDS011;62934;49.420;8.652;2022-12-18T16:27:46;114.23;;;58.40;;
20703;SDS011;62934;49.420;8.652;2022-12-18T16:30:16;97.20;;;48.37;;
20703;SDS011;62934;49.420;8.652;2022-12-18T16:32:44;116.50;;;54.33;;
20703;SDS011;62934;49.420;8.652;2022-12-18T16:35:11;101.07;;;50.60;;
20703;SDS011;62934;49.420;8.652;2022-12-18T16:37:38;83.87;;;40.37;;
20703;SDS011;62934;49.420;8.652;2022-12-18T16:40:05;92.00;;;46.17;;
20703;SDS011;62934;49.420;8.652;2022-12-18T16:42:34;122.17;;;57.33;;
20703;SDS011;62934;49.420;8.652;2022-12-18T16:45:03;79.23;;;38.73;;
20703;SDS011;62934;49.420;8.652;2022-12-18T16:47:31;89.50;;;42.77;;
20703;SDS011;62934;49.420;8.652;2022-12-18T16:49:57;117.50;;;57.07;;
20703;SDS011;62934;49.420;8.652;2022-12-18T16:52:22;95.23;;;46.63;;
20703;SDS011;62934;49.420;8.652;2022-12-18T16:54:48;102.10;;;47.70;;
20703;SDS011;62934;49.420;8.652;2022-12-18T16:57:15;120.97;;;59.40;;